Gould City, Michigan
Current Conditions -  °F | °C
As of 8:34 AM on Tuesday 21 Oct 2014 (Local Time) from KERY Reporting Station
Clear Clear  
Wind Chill: 30°   Ceiling: Unl
Heat Index: 34°   Visibility: 10mi
Dew Point: 33°   Wind: 5mph
Humidity: 94%   Direction: 350°N
Pressure: 30.17"   Gusts: NA
Location:  46.1°N, 85.7°W
Report Text: KERY 211234Z AUTO 35004KT 10SM CLR 01/01 A3017 RMK AO2 T00130005
Loading
Personal Weather Stations






























Interactive Weather Map
Tropical Storm Tracking
New forecast layout! Learn more

10-Day Weather Forecast

Advertisements
Track Severe Weather on mobile